Time;durP1;ratioP1;P1;durP2;ratioP2;P2;SDS_P1;SDS_P2;PMS_P1;PMS_P2;Temp;Humidity;BMP_temperature;BMP_pressure;BME280_temperature;BME280_humidity;BME280_pressure;Samples;Min_cycle;Max_cycle;Signal;HPM_P1;HPM_P2
2023/09/18 00:01:51;;;;;;;7.90;4.18;;;16.60;99.90;;;;;;5063701;28;20051;-85
2023/09/18 00:04:17;;;;;;;8.70;4.80;;;16.70;99.90;;;;;;5046039;28;20131;-85
2023/09/18 00:06:42;;;;;;;9.77;5.03;;;16.60;99.90;;;;;;5047363;28;20462;-85
2023/09/18 00:09:13;;;;;;;9.02;5.38;;;16.70;99.90;;;;;;5076858;28;20299;-85
2023/09/18 00:11:39;;;;;;;9.88;5.80;;;16.70;99.90;;;;;;5063046;28;20523;-85
2023/09/18 00:14:06;;;;;;;9.77;5.85;;;16.70;99.90;;;;;;5055703;28;20040;-85
2023/09/18 00:16:32;;;;;;;9.95;6.15;;;16.70;99.90;;;;;;5044687;28;20032;-85
2023/09/18 00:18:58;;;;;;;9.32;5.68;;;16.70;99.90;;;;;;5067642;28;20052;-85
2023/09/18 00:21:25;;;;;;;9.90;5.85;;;16.60;99.90;;;;;;5056254;28;20048;-85
2023/09/18 00:23:51;;;;;;;9.63;5.82;;;16.60;99.90;;;;;;5061260;28;20040;-85
2023/09/18 00:26:17;;;;;;;9.98;6.50;;;16.60;99.90;;;;;;5063242;28;20053;-85
2023/09/18 00:28:43;;;;;;;10.63;6.75;;;16.60;99.90;;;;;;5070824;28;20044;-85
2023/09/18 00:31:09;;;;;;;10.93;7.25;;;16.60;99.90;;;;;;5060275;28;20048;-85
2023/09/18 00:33:35;;;;;;;11.40;7.45;;;16.60;99.90;;;;;;5045584;28;20052;-85
2023/09/18 00:36:01;;;;;;;11.40;7.93;;;16.50;99.90;;;;;;5025118;28;20041;-86
2023/09/18 00:38:27;;;;;;;11.60;7.53;;;16.60;99.90;;;;;;5039392;28;20044;-85
2023/09/18 00:40:52;;;;;;;13.27;8.05;;;16.60;99.90;;;;;;5045721;28;20421;-85
2023/09/18 00:43:18;;;;;;;12.05;8.40;;;16.70;99.90;;;;;;5044141;28;20048;-85
2023/09/18 00:45:48;;;;;;;12.23;8.73;;;16.70;99.90;;;;;;5042699;28;20305;-86
2023/09/18 00:48:17;;;;;;;12.75;8.35;;;16.70;99.90;;;;;;5054571;28;20049;-85
2023/09/18 00:50:48;;;;;;;12.35;8.77;;;16.70;99.90;;;;;;5044360;28;20045;-86
2023/09/18 00:53:20;;;;;;;12.20;9.07;;;16.70;99.90;;;;;;5045944;28;20558;-86
2023/09/18 00:55:46;;;;;;;13.52;9.70;;;16.70;99.90;;;;;;5053518;28;20045;-86
2023/09/18 00:58:12;;;;;;;12.90;9.07;;;16.70;99.90;;;;;;5020742;28;20398;-85
2023/09/18 01:00:38;;;;;;;13.18;9.55;;;16.70;99.90;;;;;;5015595;28;20041;-86
2023/09/18 01:03:04;;;;;;;13.18;9.40;;;16.70;99.90;;;;;;5036933;28;20079;-86
2023/09/18 01:05:34;;;;;;;13.55;9.77;;;16.70;99.90;;;;;;5040916;28;20509;-85
2023/09/18 01:07:59;;;;;;;13.20;9.48;;;16.70;99.90;;;;;;5052726;28;20033;-85
2023/09/18 01:10:32;;;;;;;14.52;9.70;;;16.70;99.90;;;;;;5050640;28;20037;-86
2023/09/18 01:13:13;;;;;;;13.30;9.52;;;16.60;99.90;;;;;;5050497;28;20421;-85
2023/09/18 01:15:45;;;;;;;12.48;9.20;;;16.60;99.90;;;;;;5048463;28;20079;-85
2023/09/18 01:18:11;;;;;;;13.07;9.77;;;16.60;99.90;;;;;;5037054;28;20116;-85
2023/09/18 01:20:36;;;;;;;12.73;9.18;;;16.60;99.90;;;;;;5064112;28;20411;-85
2023/09/18 01:23:02;;;;;;;12.15;9.13;;;16.60;99.90;;;;;;5059516;28;20508;-85
2023/09/18 01:25:32;;;;;;;13.25;9.48;;;16.60;99.90;;;;;;5047898;28;20063;-85
2023/09/18 01:27:57;;;;;;;13.32;9.60;;;16.60;99.90;;;;;;5046369;28;20076;-85
2023/09/18 01:30:24;;;;;;;12.20;9.00;;;16.70;99.90;;;;;;5046514;28;20076;-85
2023/09/18 01:32:51;;;;;;;13.30;9.70;;;16.60;99.90;;;;;;5042574;28;20558;-86
2023/09/18 01:35:17;;;;;;;12.65;8.88;;;;;;;;;;5062178;28;20037;-85
2023/09/18 01:37:44;;;;;;;12.07;8.90;;;16.60;99.90;;;;;;5045458;28;20136;-85
2023/09/18 01:40:11;;;;;;;12.55;8.95;;;16.70;99.90;;;;;;5050402;28;20045;-86
2023/09/18 01:42:37;;;;;;;13.00;9.38;;;16.70;99.90;;;;;;5048758;28;20051;-85
2023/09/18 01:45:05;;;;;;;13.32;9.65;;;16.70;99.90;;;;;;5037344;28;20045;-86
2023/09/18 01:47:30;;;;;;;12.40;9.00;;;16.70;99.90;;;;;;5029274;28;20049;-86
2023/09/18 01:49:56;;;;;;;11.80;8.95;;;16.70;99.90;;;;;;5034160;28;20508;-85
2023/09/18 01:52:22;;;;;;;12.48;8.95;;;16.70;99.90;;;;;;5040124;28;20082;-85
2023/09/18 01:54:48;;;;;;;13.82;8.60;;;16.70;99.90;;;;;;5041625;28;20047;-86
2023/09/18 01:57:14;;;;;;;11.77;8.85;;;15.70;99.90;;;;;;5026542;28;20036;-85
2023/09/18 01:59:41;;;;;;;9.90;6.47;;;16.60;99.90;;;;;;5044651;28;20166;-85
2023/09/18 02:02:09;;;;;;;9.50;6.45;;;16.60;99.90;;;;;;5048386;28;20060;-86
2023/09/18 02:04:35;;;;;;;9.85;6.32;;;16.60;99.90;;;;;;5048242;28;20080;-85
2023/09/18 02:07:01;;;;;;;9.65;6.68;;;16.70;99.90;;;;;;5043872;28;20106;-86
2023/09/18 02:09:26;;;;;;;10.70;6.90;;;16.60;99.90;;;;;;5034322;28;20156;-85
2023/09/18 02:11:52;;;;;;;10.85;6.40;;;16.60;99.90;;;;;;5048167;28;20041;-85
2023/09/18 02:14:18;;;;;;;9.50;6.40;;;16.60;99.90;;;;;;5058092;28;20575;-86
2023/09/18 02:16:45;;;;;;;9.23;6.20;;;16.60;99.90;;;;;;5043793;28;20044;-85
2023/09/18 02:19:17;;;;;;;9.45;6.10;;;16.60;99.90;;;;;;5042652;28;20056;-85
2023/09/18 02:21:43;;;;;;;11.70;6.97;;;16.70;99.90;;;;;;5048489;28;20060;-85
2023/09/18 02:24:08;;;;;;;9.40;6.32;;;16.60;99.90;;;;;;5039203;28;20183;-86
2023/09/18 02:26:35;;;;;;;9.35;6.30;;;16.60;99.90;;;;;;5036700;28;20045;-85
2023/09/18 02:29:03;;;;;;;10.65;6.75;;;16.60;99.90;;;;;;5028628;28;20578;-85
2023/09/18 02:31:29;;;;;;;9.45;6.13;;;16.60;99.90;;;;;;5023584;28;20044;-86
2023/09/18 02:33:55;;;;;;;8.80;6.00;;;16.60;99.90;;;;;;5046629;28;20052;-85
2023/09/18 02:36:21;;;;;;;9.60;6.57;;;16.60;99.90;;;;;;5018412;28;20128;-85
2023/09/18 02:38:46;;;;;;;9.40;6.45;;;16.60;99.90;;;;;;5039702;28;20402;-86
2023/09/18 02:41:12;;;;;;;9.05;5.93;;;16.60;99.90;;;;;;5052833;28;20047;-85
2023/09/18 02:43:38;;;;;;;9.60;6.60;;;16.60;99.90;;;;;;5049081;28;20506;-85
2023/09/18 02:46:08;;;;;;;9.35;6.50;;;16.60;99.90;;;;;;5041596;28;20040;-85
2023/09/18 02:48:33;;;;;;;9.77;6.60;;;16.60;99.90;;;;;;5035490;28;20061;-86
2023/09/18 02:51:00;;;;;;;11.05;6.43;;;16.70;99.90;;;;;;5040988;28;20057;-85
2023/09/18 02:53:26;;;;;;;9.90;6.22;;;16.70;99.90;;;;;;5044669;28;20486;-85
2023/09/18 02:55:54;;;;;;;9.43;5.95;;;16.70;99.90;;;;;;5029881;28;20096;-85
2023/09/18 02:58:21;;;;;;;8.85;6.00;;;16.70;99.90;;;;;;5041957;28;20037;-86
2023/09/18 03:00:49;;;;;;;9.00;6.10;;;16.70;99.90;;;;;;5044301;28;20119;-85
2023/09/18 03:03:16;;;;;;;9.82;6.25;;;16.70;99.90;;;;;;5035037;28;20486;-85
2023/09/18 03:05:43;;;;;;;8.60;5.57;;;16.70;99.90;;;;;;5044648;28;20045;-85
2023/09/18 03:08:09;;;;;;;8.70;5.72;;;16.70;99.90;;;;;;5038697;28;20049;-86
2023/09/18 03:10:37;;;;;;;7.97;5.28;;;16.70;99.90;;;;;;5030499;28;20049;-85
2023/09/18 03:13:04;;;;;;;8.30;5.28;;;16.70;99.90;;;;;;5045217;28;20041;-86
2023/09/18 03:15:30;;;;;;;8.38;5.55;;;16.70;99.90;;;;;;5036921;28;20143;-85
2023/09/18 03:17:57;;;;;;;8.52;5.70;;;16.70;99.90;;;;;;5041367;28;20041;-85
2023/09/18 03:20:24;;;;;;;9.65;5.60;;;16.80;99.90;;;;;;5040669;28;20433;-85
2023/09/18 03:23:00;;;;;;;8.75;5.10;;;16.70;99.90;;;;;;5042105;28;20041;-85
2023/09/18 03:25:26;;;;;;;8.07;5.20;;;16.80;99.90;;;;;;5032454;28;20513;-85
2023/09/18 03:27:53;;;;;;;7.57;4.78;;;16.80;99.90;;;;;;5034724;28;20032;-85
2023/09/18 03:30:20;;;;;;;7.80;4.88;;;16.80;99.90;;;;;;5033973;28;20053;-85
2023/09/18 03:32:48;;;;;;;7.85;4.80;;;16.80;99.90;;;;;;5023592;28;20045;-85
2023/09/18 03:35:20;;;;;;;8.05;4.90;;;16.70;99.90;;;;;;5023971;28;20367;-86
2023/09/18 03:37:46;;;;;;;8.60;5.00;;;16.70;99.90;;;;;;5044741;28;20037;-85
2023/09/18 03:40:12;;;;;;;8.15;4.82;;;16.70;99.90;;;;;;5038935;28;20299;-85
2023/09/18 03:42:37;;;;;;;8.48;5.07;;;16.70;99.90;;;;;;5033523;28;20605;-85
2023/09/18 03:45:06;;;;;;;8.57;5.15;;;16.70;99.90;;;;;;5042657;28;20059;-85
2023/09/18 03:47:32;;;;;;;7.90;4.60;;;16.70;99.90;;;;;;5040909;28;20072;-85
2023/09/18 03:49:57;;;;;;;8.13;4.75;;;16.80;99.90;;;;;;5042088;28;20060;-85
2023/09/18 03:52:23;;;;;;;8.75;4.88;;;16.70;99.90;;;;;;5053047;28;20049;-85
2023/09/18 03:54:49;;;;;;;7.90;4.55;;;16.70;99.90;;;;;;5036378;28;20525;-85
2023/09/18 03:57:15;;;;;;;8.27;4.60;;;16.70;99.90;;;;;;5042988;28;20041;-85
2023/09/18 03:59:40;;;;;;;8.98;4.72;;;16.70;99.90;;;;;;5030481;28;20053;-85
2023/09/18 04:02:06;;;;;;;8.05;4.47;;;16.70;99.90;;;;;;5022122;28;20256;-85
2023/09/18 04:04:32;;;;;;;7.65;4.15;;;16.70;99.90;;;;;;5038627;28;20040;-85
2023/09/18 04:06:58;;;;;;;7.60;4.30;;;16.80;99.90;;;;;;5051974;28;20033;-85
2023/09/18 04:09:23;;;;;;;7.80;4.57;;;16.80;99.90;;;;;;5046963;28;20071;-85
2023/09/18 04:11:50;;;;;;;7.55;4.53;;;16.80;99.90;;;;;;5044141;28;20136;-85
2023/09/18 04:14:15;;;;;;;8.48;4.32;;;16.80;99.90;;;;;;5041289;28;20486;-85
2023/09/18 04:16:42;;;;;;;8.55;4.15;;;16.80;99.90;;;;;;5020872;28;20051;-85
2023/09/18 04:19:09;;;;;;;7.85;4.28;;;16.80;99.90;;;;;;5051771;28;20039;-85
2023/09/18 04:21:35;;;;;;;7.80;4.45;;;16.90;99.90;;;;;;5041275;28;20048;-85
2023/09/18 04:24:01;;;;;;;7.40;4.22;;;16.90;99.90;;;;;;5042444;28;20044;-85
2023/09/18 04:26:30;;;;;;;7.75;4.15;;;16.90;99.90;;;;;;5045044;28;20044;-85
2023/09/18 04:29:00;;;;;;;7.70;4.20;;;16.90;99.90;;;;;;5046258;28;20040;-85
2023/09/18 04:31:27;;;;;;;7.60;4.18;;;17.00;99.90;;;;;;5038397;28;20410;-85
2023/09/18 04:33:53;;;;;;;8.10;4.40;;;17.00;99.90;;;;;;5035617;28;20044;-85
2023/09/18 04:36:20;;;;;;;7.95;4.45;;;17.00;99.90;;;;;;5022247;28;20040;-85
2023/09/18 04:38:45;;;;;;;8.25;4.40;;;17.00;99.90;;;;;;5036259;28;20040;-85
2023/09/18 04:41:11;;;;;;;8.00;4.65;;;17.10;99.90;;;;;;5050320;28;20032;-85
2023/09/18 04:43:41;;;;;;;7.72;4.30;;;17.00;99.90;;;;;;5037443;28;20037;-85
2023/09/18 04:46:07;;;;;;;7.95;4.38;;;17.10;99.90;;;;;;5045553;28;20072;-86
2023/09/18 04:48:33;;;;;;;7.30;4.07;;;17.10;99.90;;;;;;5036840;28;20057;-85
2023/09/18 04:50:59;;;;;;;7.57;3.80;;;17.10;99.90;;;;;;5045456;28;20053;-85
2023/09/18 04:53:27;;;;;;;8.10;4.22;;;17.20;99.90;;;;;;5040995;28;20052;-85
2023/09/18 04:55:53;;;;;;;8.45;4.78;;;17.10;99.90;;;;;;5042750;28;20043;-85
2023/09/18 04:58:19;;;;;;;8.82;5.00;;;17.10;99.90;;;;;;5037585;28;20048;-85
2023/09/18 05:00:46;;;;;;;9.30;4.93;;;17.20;99.90;;;;;;5066311;28;20093;-85
2023/09/18 05:03:12;;;;;;;9.40;4.93;;;17.20;99.90;;;;;;5047804;28;20234;-85
2023/09/18 05:05:38;;;;;;;8.98;5.10;;;17.20;99.90;;;;;;5054552;28;20048;-85
2023/09/18 05:08:07;;;;;;;10.40;6.05;;;17.20;99.90;;;;;;5025626;28;20040;-85
2023/09/18 05:10:37;;;;;;;8.35;4.80;;;17.30;99.90;;;;;;5043704;28;20052;-85
2023/09/18 05:13:03;;;;;;;11.13;4.75;;;17.30;99.90;;;;;;5040584;28;20048;-85
2023/09/18 05:15:30;;;;;;;8.52;4.82;;;17.30;99.90;;;;;;5049398;28;20551;-85
2023/09/18 05:17:57;;;;;;;9.32;5.00;;;17.20;99.90;;;;;;5039142;28;20044;-86
2023/09/18 05:20:27;;;;;;;8.10;4.60;;;17.40;99.90;;;;;;5042356;28;20433;-86
2023/09/18 05:22:55;;;;;;;8.68;5.05;;;17.40;99.90;;;;;;5040117;28;20076;-86
2023/09/18 05:25:22;;;;;;;9.02;4.85;;;17.40;99.90;;;;;;5057450;28;20115;-86
2023/09/18 05:27:54;;;;;;;9.20;5.05;;;17.40;99.90;;;;;;5067900;28;20041;-86
2023/09/18 05:30:27;;;;;;;9.13;5.13;;;17.40;99.90;;;;;;5070517;28;20106;-85
2023/09/18 05:32:56;;;;;;;8.10;4.55;;;17.40;99.90;;;;;;5051896;28;20101;-86
2023/09/18 05:35:23;;;;;;;8.95;4.75;;;17.50;99.90;;;;;;5054726;28;20082;-85
2023/09/18 05:37:50;;;;;;;8.75;4.60;;;17.50;99.90;;;;;;5038135;28;20036;-86
2023/09/18 05:40:17;;;;;;;8.18;4.65;;;17.50;99.90;;;;;;5053064;28;20048;-86
2023/09/18 05:42:43;;;;;;;8.63;4.90;;;17.50;99.90;;;;;;5054000;28;20033;-86
2023/09/18 05:45:11;;;;;;;8.73;4.70;;;17.50;99.90;;;;;;5053051;28;20093;-86
2023/09/18 05:47:38;;;;;;;8.45;4.57;;;17.60;99.90;;;;;;5067274;28;20041;-85
2023/09/18 05:50:08;;;;;;;9.45;4.82;;;17.60;99.90;;;;;;5062851;28;20076;-85
2023/09/18 05:52:34;;;;;;;8.70;4.47;;;17.70;99.90;;;;;;5033317;28;20044;-85
2023/09/18 05:55:01;;;;;;;8.52;4.60;;;17.60;99.90;;;;;;5040780;28;20094;-86
2023/09/18 05:57:27;;;;;;;8.35;4.30;;;17.20;99.90;;;;;;5043988;28;20543;-85
2023/09/18 05:59:56;;;;;;;8.48;4.30;;;17.70;99.90;;;;;;5058257;28;20056;-85
2023/09/18 06:02:23;;;;;;;8.65;4.78;;;17.70;99.90;;;;;;5052182;28;20425;-85
2023/09/18 06:04:48;;;;;;;8.00;4.00;;;17.80;99.90;;;;;;5045067;28;20044;-86
2023/09/18 06:07:14;;;;;;;7.82;3.90;;;17.80;99.90;;;;;;5047387;28;20070;-86
2023/09/18 06:09:40;;;;;;;7.93;3.95;;;17.80;99.90;;;;;;5034851;28;20128;-86
2023/09/18 06:12:07;;;;;;;8.90;4.28;;;17.90;99.90;;;;;;5021245;28;20044;-85
2023/09/18 06:14:37;;;;;;;8.02;4.15;;;17.90;99.90;;;;;;5041097;28;20037;-87
2023/09/18 06:17:03;;;;;;;9.05;4.00;;;18.00;99.90;;;;;;5022453;28;20513;-85
2023/09/18 06:19:29;;;;;;;8.65;3.90;;;18.00;99.90;;;;;;5034070;28;20049;-86
2023/09/18 06:21:55;;;;;;;8.70;3.83;;;18.00;99.90;;;;;;5029233;28;20496;-85
2023/09/18 06:24:21;;;;;;;7.93;3.85;;;18.10;99.90;;;;;;5043238;28;20040;-85
2023/09/18 06:26:47;;;;;;;9.65;3.90;;;18.10;99.90;;;;;;5028963;28;20052;-84
2023/09/18 06:29:13;;;;;;;8.57;3.88;;;18.10;99.90;;;;;;5046049;28;20047;-85
2023/09/18 06:31:39;;;;;;;7.78;3.80;;;18.20;99.90;;;;;;5037351;28;21310;-86
2023/09/18 06:34:05;;;;;;;8.20;3.95;;;18.20;99.90;;;;;;5006304;28;20032;-86
2023/09/18 06:36:30;;;;;;;7.70;3.65;;;18.20;99.90;;;;;;5014108;28;20635;-85
2023/09/18 06:38:56;;;;;;;6.65;2.90;;;18.20;99.90;;;;;;5059584;28;20029;-85
2023/09/18 06:41:22;;;;;;;9.13;3.10;;;18.20;99.90;;;;;;5031881;28;20052;-86
2023/09/18 06:43:48;;;;;;;7.15;3.00;;;18.20;99.90;;;;;;5036447;28;20036;-85
2023/09/18 06:46:14;;;;;;;7.80;2.97;;;18.20;99.90;;;;;;5036399;28;20110;-86
2023/09/18 06:48:39;;;;;;;6.38;2.50;;;18.20;99.90;;;;;;5025260;28;20059;-86
2023/09/18 06:51:06;;;;;;;12.10;3.13;;;18.20;99.90;;;;;;5029181;28;20049;-85
2023/09/18 06:53:32;;;;;;;5.75;2.67;;;18.20;99.90;;;;;;5015601;28;20040;-86
2023/09/18 06:55:57;;;;;;;7.82;2.63;;;18.20;99.90;;;;;;5040605;28;20533;-86
2023/09/18 06:58:23;;;;;;;5.78;2.55;;;18.20;99.90;;;;;;5027992;28;20485;-87
2023/09/18 07:00:50;;;;;;;6.72;2.60;;;18.20;99.90;;;;;;5015723;28;20059;-87
2023/09/18 07:03:17;;;;;;;6.07;2.88;;;18.20;99.90;;;;;;5042089;28;20048;-87
2023/09/18 07:05:43;;;;;;;6.22;2.50;;;18.20;99.90;;;;;;5038399;28;20056;-87
2023/09/18 07:08:11;;;;;;;6.63;2.60;;;18.20;99.90;;;;;;5037203;28;20048;-90
2023/09/18 07:10:38;;;;;;;5.50;2.40;;;18.20;99.90;;;;;;5009383;28;20048;-87
2023/09/18 07:13:04;;;;;;;5.97;2.50;;;18.20;99.90;;;;;;5026851;28;20044;-89
2023/09/18 07:15:29;;;;;;;5.95;2.78;;;18.30;99.90;;;;;;5044975;28;20389;-87
2023/09/18 07:17:55;;;;;;;5.65;2.70;;;18.20;99.90;;;;;;5025979;28;20508;-87
2023/09/18 07:20:22;;;;;;;5.43;2.38;;;18.20;99.90;;;;;;5054048;28;20041;-89
2023/09/18 07:22:48;;;;;;;6.90;3.20;;;18.20;99.90;;;;;;5041895;28;20128;-90
2023/09/18 07:25:14;;;;;;;8.73;2.80;;;18.10;99.90;;;;;;5009374;28;20173;-90
2023/09/18 07:27:43;;;;;;;6.00;2.53;;;18.10;99.90;;;;;;5022200;28;20052;-91
2023/09/18 07:30:10;;;;;;;6.70;2.78;;;18.10;99.90;;;;;;5027641;28;20049;-92
2023/09/18 07:32:36;;;;;;;6.43;2.65;;;18.10;99.90;;;;;;5026485;28;20039;-92
2023/09/18 07:35:04;;;;;;;6.57;2.65;;;18.10;99.90;;;;;;5026469;28;20033;-88
2023/09/18 07:37:34;;;;;;;5.97;2.50;;;18.20;99.90;;;;;;5025263;28;20037;-93
2023/09/18 07:40:00;;;;;;;7.60;2.83;;;18.50;99.90;;;;;;5027550;28;20041;-95
2023/09/18 07:42:34;;;;;;;6.07;2.78;;;18.30;99.90;;;;;;5038364;28;20044;-93
2023/09/18 07:45:00;;;;;;;6.70;2.50;;;18.20;99.90;;;;;;5027375;28;20397;-93
2023/09/18 07:47:26;;;;;;;6.82;2.67;;;18.30;99.90;;;;;;5023316;28;20044;-90
2023/09/18 07:49:54;;;;;;;5.85;2.40;;;18.30;99.90;;;;;;5005592;28;20052;-92
2023/09/18 07:52:19;;;;;;;6.80;2.40;;;18.30;99.90;;;;;;5010332;28;20037;-91
2023/09/18 07:54:45;;;;;;;5.90;2.60;;;18.30;99.90;;;;;;5019323;28;20033;-91
2023/09/18 07:57:11;;;;;;;5.82;2.50;;;18.30;99.90;;;;;;5024294;28;20171;-93
2023/09/18 07:59:38;;;;;;;5.65;2.60;;;18.30;99.90;;;;;;5007286;28;20064;-94
2023/09/18 08:02:09;;;;;;;5.93;2.63;;;18.30;99.90;;;;;;5028820;28;20493;-93
2023/09/18 08:04:34;;;;;;;6.15;2.58;;;18.30;99.90;;;;;;5027152;28;20048;-92
2023/09/18 08:07:00;;;;;;;6.70;2.80;;;18.30;99.90;;;;;;5017131;28;20193;-92
2023/09/18 08:09:29;;;;;;;8.05;2.80;;;18.30;99.90;;;;;;5026991;28;20036;-91
2023/09/18 08:11:55;;;;;;;5.45;2.53;;;18.40;99.90;;;;;;5043176;28;20037;-92
2023/09/18 08:14:22;;;;;;;7.10;2.90;;;18.30;99.90;;;;;;5009581;28;20171;-91
2023/09/18 08:16:47;;;;;;;6.32;2.80;;;18.30;99.90;;;;;;5001121;28;20482;-92
2023/09/18 08:19:19;;;;;;;5.22;2.30;;;18.40;99.90;;;;;;5020826;28;20044;-89
2023/09/18 08:21:46;;;;;;;6.03;2.30;;;18.40;99.90;;;;;;5042719;28;20053;-91
2023/09/18 08:24:12;;;;;;;4.88;2.40;;;18.40;99.90;;;;;;5039896;28;20040;-90
2023/09/18 08:26:37;;;;;;;4.88;2.20;;;18.40;99.90;;;;;;5026351;28;20037;-91
2023/09/18 08:29:03;;;;;;;4.93;2.20;;;18.40;99.90;;;;;;5001031;28;20032;-90
2023/09/18 08:31:31;;;;;;;5.10;2.22;;;18.40;99.90;;;;;;5020010;28;20041;-91
2023/09/18 08:33:57;;;;;;;6.03;2.30;;;18.40;99.90;;;;;;5025048;28;20037;-90
2023/09/18 08:36:23;;;;;;;5.50;2.22;;;18.40;99.90;;;;;;5024006;28;20036;-89
2023/09/18 08:38:49;;;;;;;4.63;2.17;;;18.40;99.90;;;;;;5042461;28;20409;-89
2023/09/18 08:41:19;;;;;;;5.03;2.20;;;18.40;99.90;;;;;;5044037;28;20467;-91
2023/09/18 08:43:46;;;;;;;4.75;2.08;;;18.40;99.90;;;;;;5036167;28;20063;-93
2023/09/18 08:46:12;;;;;;;6.07;2.40;;;18.50;99.90;;;;;;5014451;28;20098;-91
2023/09/18 08:48:39;;;;;;;4.78;2.10;;;18.50;99.90;;;;;;5040610;28;20057;-89
2023/09/18 08:51:06;;;;;;;4.95;2.47;;;18.50;99.90;;;;;;5002567;28;20081;-92
2023/09/18 08:53:33;;;;;;;4.03;2.00;;;18.50;99.90;;;;;;5046287;28;20032;-91
2023/09/18 08:56:03;;;;;;;5.15;2.25;;;18.50;99.90;;;;;;5006102;28;20032;-89
2023/09/18 08:58:39;;;;;;;5.07;2.40;;;18.50;99.90;;;;;;5023349;28;20045;-88
2023/09/18 09:01:09;;;;;;;5.38;2.13;;;18.50;99.90;;;;;;5038200;28;20048;-91
2023/09/18 09:03:38;;;;;;;6.20;2.40;;;18.60;99.90;;;;;;5033992;28;20466;-91
2023/09/18 09:06:06;;;;;;;5.75;2.22;;;18.60;99.90;;;;;;5014688;28;20033;-91
2023/09/18 09:08:32;;;;;;;4.85;1.90;;;18.70;99.90;;;;;;5032313;28;20040;-89
2023/09/18 09:10:58;;;;;;;6.00;2.65;;;18.70;99.90;;;;;;5061516;28;20071;-91
2023/09/18 09:13:26;;;;;;;6.15;2.72;;;18.70;99.90;;;;;;5025469;28;20044;-90
2023/09/18 09:15:55;;;;;;;5.78;2.50;;;18.70;99.90;;;;;;5040141;28;20051;-88
2023/09/18 09:18:22;;;;;;;5.38;2.40;;;18.80;99.90;;;;;;5039264;28;20326;-90
2023/09/18 09:21:04;;;;;;;5.07;2.38;;;18.80;99.90;;;;;;5048771;28;20029;-91
2023/09/18 09:23:44;;;;;;;5.57;2.33;;;18.80;99.90;;;;;;5041117;28;20036;-91
2023/09/18 09:26:15;;;;;;;5.70;2.30;;;18.80;99.90;;;;;;5047504;28;20047;-90
2023/09/18 09:28:43;;;;;;;5.78;2.38;;;18.80;99.90;;;;;;5047122;28;20481;-90
2023/09/18 09:31:10;;;;;;;5.47;2.47;;;18.80;99.90;;;;;;5039780;28;20119;-89
2023/09/18 09:33:40;;;;;;;6.28;2.50;;;18.80;99.90;;;;;;5049080;28;20531;-88
2023/09/18 09:36:07;;;;;;;6.10;2.50;;;18.90;99.90;;;;;;5045224;28;20055;-89
2023/09/18 09:38:34;;;;;;;5.18;2.30;;;18.90;99.90;;;;;;5047604;28;20090;-89
2023/09/18 09:41:01;;;;;;;4.70;2.13;;;18.90;99.90;;;;;;5042128;28;20084;-88
2023/09/18 09:43:31;;;;;;;4.63;2.25;;;18.90;99.90;;;;;;5021145;28;20051;-88
2023/09/18 09:46:04;;;;;;;6.28;2.67;;;19.00;99.90;;;;;;5054253;28;20405;-88
2023/09/18 09:48:31;;;;;;;;;;;19.10;99.90;;;;;;5057078;28;20052;-89
2023/09/18 09:51:01;;;;;;;6.45;2.30;;;19.20;99.90;;;;;;5040767;28;19925;-88
2023/09/18 09:53:48;;;;;;;6.68;2.90;;;19.20;99.90;;;;;;5043223;28;20091;-88
2023/09/18 09:56:15;;;;;;;6.03;2.70;;;19.20;99.90;;;;;;5059333;28;20032;-88
2023/09/18 09:58:43;;;;;;;6.63;2.90;;;19.30;99.90;;;;;;5042240;28;20048;-89
2023/09/18 10:01:17;;;;;;;6.65;2.90;;;19.30;99.90;;;;;;5027985;28;20047;-88
2023/09/18 10:03:45;;;;;;;6.43;2.90;;;19.30;99.90;;;;;;5056443;28;20110;-88
2023/09/18 10:06:14;;;;;;;6.50;2.80;;;19.30;99.90;;;;;;5046887;28;20489;-87
2023/09/18 10:08:40;;;;;;;5.90;2.67;;;19.30;99.90;;;;;;5024226;28;20123;-88
2023/09/18 10:11:11;;;;;;;6.13;2.83;;;19.40;99.90;;;;;;5037990;28;20513;-88
2023/09/18 10:13:46;;;;;;;6.97;2.92;;;19.50;99.90;;;;;;5043314;28;20084;-88
2023/09/18 10:16:14;;;;;;;6.43;2.90;;;19.60;99.90;;;;;;5047102;28;20040;-88
2023/09/18 10:18:43;;;;;;;7.00;3.00;;;19.70;99.90;;;;;;5044180;28;21551;-87
2023/09/18 10:21:31;;;;;;;6.85;3.05;;;19.80;99.90;;;;;;5036749;28;20036;-87
2023/09/18 10:24:01;;;;;;;8.07;3.20;;;20.00;99.90;;;;;;5032240;28;20072;-87
2023/09/18 10:26:29;;;;;;;6.72;3.03;;;20.00;99.90;;;;;;5043884;28;20063;-86
2023/09/18 10:28:59;;;;;;;7.10;3.30;;;20.00;99.90;;;;;;5043869;28;20041;-86
2023/09/18 10:31:29;;;;;;;6.63;3.17;;;20.00;99.90;;;;;;5046651;28;22073;-87
2023/09/18 10:33:59;;;;;;;7.00;3.47;;;20.20;99.90;;;;;;5042350;28;20099;-86
2023/09/18 10:36:26;;;;;;;7.07;3.30;;;20.40;99.90;;;;;;5038046;28;20041;-85
2023/09/18 10:38:54;;;;;;;6.80;3.30;;;20.30;99.90;;;;;;5039634;28;20480;-87
2023/09/18 10:41:21;;;;;;;7.68;3.63;;;20.40;99.90;;;;;;5019446;28;20102;-86
2023/09/18 10:43:49;;;;;;;7.78;3.55;;;20.40;99.90;;;;;;5028283;28;20044;-85
2023/09/18 10:46:16;;;;;;;7.50;3.80;;;20.40;99.90;;;;;;5039322;28;20048;-85
2023/09/18 10:48:44;;;;;;;7.55;3.63;;;20.50;99.90;;;;;;5040857;28;20053;-85
2023/09/18 10:51:11;;;;;;;7.05;3.25;;;20.50;99.90;;;;;;5028975;28;20052;-86
2023/09/18 10:53:37;;;;;;;6.97;3.00;;;20.50;99.90;;;;;;5040538;28;20259;-85
2023/09/18 10:56:06;;;;;;;6.60;3.30;;;20.70;99.90;;;;;;5026959;28;20244;-85
2023/09/18 10:58:38;;;;;;;7.10;3.22;;;20.70;99.90;;;;;;5028538;28;20033;-85
2023/09/18 11:01:05;;;;;;;6.55;3.08;;;20.80;99.90;;;;;;5039509;28;20048;-85
2023/09/18 11:03:33;;;;;;;6.22;2.70;;;20.90;99.90;;;;;;5031591;28;20041;-85
2023/09/18 11:06:04;;;;;;;6.60;2.90;;;20.90;99.90;;;;;;5039967;28;20057;-85
2023/09/18 11:08:42;;;;;;;5.32;2.40;;;21.00;99.90;;;;;;5026770;28;20056;-86
2023/09/18 11:11:09;;;;;;;6.53;2.60;;;21.00;99.90;;;;;;5035800;28;20041;-85
2023/09/18 11:13:38;;;;;;;5.30;2.33;;;21.00;99.90;;;;;;5040181;28;20044;-86
2023/09/18 11:16:25;;;;;;;5.25;2.33;;;21.00;99.90;;;;;;5040235;28;20045;-85
2023/09/18 11:18:52;;;;;;;5.45;2.20;;;20.90;99.90;;;;;;5038734;28;20045;-85
2023/09/18 11:21:23;;;;;;;4.88;2.30;;;20.90;99.90;;;;;;5031960;28;20168;-84
2023/09/18 11:24:04;;;;;;;4.90;2.03;;;21.00;99.90;;;;;;5030020;28;20094;-85
2023/09/18 11:26:34;;;;;;;5.10;2.08;;;21.20;99.90;;;;;;5039506;28;20164;-86
2023/09/18 11:29:12;;;;;;;3.60;1.90;;;21.30;99.90;;;;;;5034315;28;20033;-85
2023/09/18 11:31:55;;;;;;;3.28;1.80;;;21.30;99.90;;;;;;5035752;28;20045;-86
2023/09/18 11:34:28;;;;;;;4.43;1.90;;;21.20;99.90;;;;;;5036710;28;20030;-86
2023/09/18 11:36:55;;;;;;;3.88;1.88;;;21.10;99.90;;;;;;5041621;28;20041;-85
2023/09/18 11:39:37;;;;;;;4.35;1.77;;;21.00;99.90;;;;;;5038477;28;20049;-86
2023/09/18 11:42:13;;;;;;;4.47;1.80;;;21.00;99.90;;;;;;5037415;28;20080;-85
2023/09/18 11:44:45;;;;;;;4.07;1.73;;;21.00;99.90;;;;;;5034926;28;20601;-86
2023/09/18 11:47:24;;;;;;;3.95;1.90;;;21.10;99.90;;;;;;5000515;28;20573;-87
2023/09/18 11:49:59;;;;;;;3.97;1.80;;;21.30;99.90;;;;;;5041750;28;20049;-85
2023/09/18 11:52:30;;;;;;;3.85;1.77;;;21.50;99.90;;;;;;5031927;28;20552;-86
2023/09/18 11:54:58;;;;;;;3.08;1.60;;;21.50;99.90;;;;;;5034937;28;20049;-85
2023/09/18 11:57:24;;;;;;;5.85;1.90;;;21.50;99.90;;;;;;5033572;28;20132;-85
2023/09/18 11:59:51;;;;;;;3.28;1.70;;;21.50;99.90;;;;;;5035108;28;20063;-87
2023/09/18 12:02:28;;;;;;;3.17;1.70;;;21.50;99.90;;;;;;5030317;28;20060;-85
2023/09/18 12:04:55;;;;;;;4.65;1.70;;;21.50;99.90;;;;;;5006006;28;20029;-87
2023/09/18 12:07:20;;;;;;;2.75;1.60;;;21.70;99.90;;;;;;5038721;28;20048;-87
2023/09/18 12:09:46;;;;;;;3.40;1.60;;;21.90;99.90;;;;;;5039593;28;20046;-87
2023/09/18 12:12:15;;;;;;;3.13;1.60;;;21.80;99.90;;;;;;5033730;28;20055;-85
2023/09/18 12:14:44;;;;;;;3.00;1.45;;;21.90;99.90;;;;;;5031397;28;20032;-85
2023/09/18 12:17:14;;;;;;;2.88;1.60;;;22.20;99.90;;;;;;5033723;28;20044;-85
2023/09/18 12:19:53;;;;;;;5.00;1.70;;;22.30;99.90;;;;;;5035654;28;20048;-86
2023/09/18 12:22:30;;;;;;;4.30;1.80;;;22.30;99.90;;;;;;5011333;28;20491;-86
2023/09/18 12:25:13;;;;;;;3.08;1.45;;;22.50;99.90;;;;;;5034748;28;20033;-85
2023/09/18 12:27:40;;;;;;;2.05;1.33;;;22.40;99.90;;;;;;5033561;28;20053;-85
2023/09/18 12:30:07;;;;;;;3.25;1.60;;;22.50;99.90;;;;;;5039511;28;20040;-85
2023/09/18 12:32:35;;;;;;;1.73;1.08;;;22.50;99.90;;;;;;5035336;28;20076;-86
2023/09/18 12:35:01;;;;;;;1.70;0.90;;;;;;;;;;5034556;28;20048;-86
2023/09/18 12:37:27;;;;;;;1.13;0.98;;;22.80;99.90;;;;;;5031553;28;20048;-85
2023/09/18 12:39:53;;;;;;;1.48;1.00;;;22.60;99.90;;;;;;5038579;28;20037;-85
2023/09/18 12:42:19;;;;;;;2.38;1.15;;;22.40;99.90;;;;;;5046619;28;20041;-86
2023/09/18 12:44:48;;;;;;;1.60;1.00;;;21.90;99.90;;;;;;5038750;28;20045;-86
2023/09/18 12:47:14;;;;;;;2.00;0.95;;;21.90;99.90;;;;;;5027652;28;20379;-86
2023/09/18 12:49:40;;;;;;;2.22;1.25;;;21.80;99.90;;;;;;5047415;28;20045;-86